createdAt,value
2019-04-23T00:02:04.049Z,4.80
2019-04-23T00:04:36.735Z,5.17
2019-04-23T00:07:30.016Z,5.55
2019-04-23T00:09:38.980Z,5.20
2019-04-23T00:12:23.922Z,5.13
2019-04-23T00:14:54.781Z,5.60
2019-04-23T00:17:24.967Z,5.10
2019-04-23T00:19:50.349Z,6.05
2019-04-23T00:22:28.815Z,6.00
2019-04-23T00:25:25.315Z,6.10
2019-04-23T00:27:35.561Z,6.10
2019-04-23T00:30:07.372Z,6.10
2019-04-23T00:32:36.282Z,5.67
2019-04-23T00:35:06.457Z,5.72
2019-04-23T00:37:37.323Z,5.83
2019-04-23T00:40:13.875Z,6.13
2019-04-23T00:42:41.609Z,5.90
2019-04-23T00:45:14.086Z,6.10
2019-04-23T00:47:45.693Z,6.90
2019-04-23T00:52:57.688Z,6.40
2019-04-23T00:55:33.052Z,6.30
2019-04-23T00:58:06.224Z,6.57
2019-04-23T01:03:10.250Z,6.70
2019-04-23T01:05:39.245Z,7.28
2019-04-23T01:08:16.708Z,6.40
2019-04-23T01:10:43.294Z,6.13
2019-04-23T01:13:17.446Z,6.93
2019-04-23T01:15:48.146Z,7.00
2019-04-23T01:18:32.210Z,6.00
2019-04-23T01:20:52.994Z,6.20
2019-04-23T01:23:13.882Z,6.73
2019-04-23T01:25:54.556Z,7.07
2019-04-23T01:28:50.296Z,6.33
2019-04-23T01:31:18.288Z,6.50
2019-04-23T01:33:46.168Z,7.28
2019-04-23T01:36:21.776Z,7.17
2019-04-23T01:38:56.075Z,6.70
2019-04-23T01:41:25.242Z,6.93
2019-04-23T01:44:15.631Z,6.80
2019-04-23T01:46:21.414Z,7.20
2019-04-23T01:48:52.272Z,6.73
2019-04-23T01:51:26.507Z,6.90
2019-04-23T01:53:58.220Z,6.43
2019-04-23T01:56:30.847Z,7.43
2019-04-23T02:01:32.807Z,7.43
2019-04-23T02:06:34.953Z,6.90
2019-04-23T02:09:05.027Z,7.07
2019-04-23T02:11:35.746Z,7.10
2019-04-23T02:14:09.644Z,7.50
2019-04-23T02:19:18.233Z,6.60
2019-04-23T02:24:29.906Z,7.08
2019-04-23T02:27:00.006Z,7.70
2019-04-23T02:32:24.289Z,7.57
2019-04-23T02:34:57.809Z,7.40
2019-04-23T02:37:19.389Z,7.13
2019-04-23T02:39:49.563Z,7.10
2019-04-23T02:44:39.003Z,7.33
2019-04-23T02:47:34.854Z,7.80
2019-04-23T02:50:01.511Z,7.37
2019-04-23T02:57:24.677Z,8.28
2019-04-23T03:02:37.109Z,8.13
2019-04-23T03:05:15.160Z,7.70
2019-04-23T03:10:02.883Z,8.90
2019-04-23T03:12:43.346Z,7.80
2019-04-23T03:15:21.356Z,8.10
2019-04-23T03:20:57.400Z,8.10
2019-04-23T03:23:29.054Z,8.10
2019-04-23T03:25:46.097Z,8.13
2019-04-23T03:28:27.293Z,8.20
2019-04-23T03:38:40.679Z,7.47
2019-04-23T03:41:06.963Z,7.77
2019-04-23T03:43:33.334Z,8.60
2019-04-23T03:51:03.126Z,9.13
2019-04-23T03:53:47.981Z,9.17
2019-04-23T04:01:11.937Z,8.87
2019-04-23T04:06:39.519Z,8.80
2019-04-23T04:08:53.097Z,8.97
2019-04-23T04:11:14.221Z,9.43
2019-04-23T04:13:51.029Z,9.30
2019-04-23T04:16:42.859Z,8.97
2019-04-23T04:18:55.271Z,9.63
2019-04-23T04:21:29.878Z,9.83
2019-04-23T04:24:05.057Z,9.07
2019-04-23T04:26:41.993Z,9.70
2019-04-23T04:29:00.632Z,9.67
2019-04-23T04:31:42.856Z,9.13
2019-04-23T04:36:58.558Z,9.60
2019-04-23T04:39:19.761Z,9.33
2019-04-23T04:41:31.251Z,8.93
2019-04-23T04:46:44.196Z,9.13
2019-04-23T04:51:51.847Z,8.93
2019-04-23T04:56:44.920Z,10.17
2019-04-23T05:01:52.147Z,9.87
2019-04-23T05:04:30.791Z,10.47
2019-04-23T05:09:38.098Z,9.43
2019-04-23T05:12:17.175Z,10.30
2019-04-23T05:19:45.777Z,10.70
2019-04-23T05:24:36.678Z,10.40
2019-04-23T05:27:15.559Z,11.00
2019-04-23T05:29:39.094Z,10.10
2019-04-23T05:32:28.815Z,10.70
2019-04-23T05:34:40.162Z,10.10
2019-04-23T05:37:15.988Z,10.97
2019-04-23T05:39:45.459Z,10.60
2019-04-23T05:42:31.953Z,10.33
2019-04-23T05:44:52.772Z,10.47
2019-04-23T05:47:20.318Z,11.47
2019-04-23T05:49:57.258Z,11.17
2019-04-23T05:52:27.852Z,10.43
2019-04-23T05:55:04.074Z,11.33
2019-04-23T05:57:28.578Z,10.17
2019-04-23T06:00:04.134Z,11.43
2019-04-23T06:02:35.866Z,11.33
2019-04-23T06:05:05.998Z,10.97
2019-04-23T06:07:35.886Z,10.97
2019-04-23T06:10:04.710Z,10.00
2019-04-23T06:12:42.272Z,9.37
2019-04-23T06:15:11.538Z,11.13
2019-04-23T06:17:37.727Z,9.47
2019-04-23T06:25:31.011Z,9.67
2019-04-23T06:27:48.290Z,9.27
2019-04-23T06:30:41.905Z,9.73
2019-04-23T06:32:58.021Z,9.90
2019-04-23T06:35:23.822Z,8.50
2019-04-23T06:38:13.637Z,8.57
2019-04-23T06:40:26.659Z,9.20
2019-04-23T06:43:01.008Z,8.77
2019-04-23T06:45:28.867Z,8.70
2019-04-23T06:48:08.802Z,8.47
2019-04-23T06:50:36.947Z,9.23
2019-04-23T06:52:58.872Z,9.70
2019-04-23T06:55:35.736Z,8.57
2019-04-23T06:58:15.073Z,9.50
2019-04-23T07:00:42.050Z,8.77
2019-04-23T07:03:15.061Z,9.17
2019-04-23T07:06:20.765Z,8.20
2019-04-23T07:16:19.256Z,8.53
2019-04-23T07:18:50.361Z,8.47
2019-04-23T07:21:23.529Z,8.50
2019-04-23T07:24:08.543Z,7.97
2019-04-23T07:28:53.165Z,8.77
2019-04-23T07:31:29.655Z,8.13
2019-04-23T07:33:59.639Z,8.40
2019-04-23T07:36:31.053Z,9.60
2019-04-23T07:39:21.920Z,8.77
2019-04-23T07:44:33.129Z,7.87
2019-04-23T07:47:10.410Z,7.97
2019-04-23T07:49:23.628Z,8.03
2019-04-23T07:52:03.565Z,7.57
2019-04-23T07:54:32.217Z,7.90
2019-04-23T07:57:02.886Z,7.30
2019-04-23T07:59:33.535Z,7.07
2019-04-23T08:02:08.032Z,7.70
2019-04-23T08:04:36.352Z,7.27
2019-04-23T08:07:08.242Z,6.90
2019-04-23T08:09:43.961Z,6.57
2019-04-23T08:12:13.314Z,7.20
2019-04-23T08:14:47.962Z,7.60
2019-04-23T08:17:10.840Z,7.30
2019-04-23T08:19:49.615Z,7.10
2019-04-23T08:25:01.102Z,7.03
2019-04-23T08:27:24.200Z,8.60
2019-04-23T08:29:55.671Z,7.60
2019-04-23T08:32:21.601Z,8.50
2019-04-23T08:35:03.151Z,7.87
2019-04-23T08:40:01.525Z,7.30
2019-04-23T08:48:04.268Z,7.60
2019-04-23T08:50:27.639Z,7.40
2019-04-23T08:53:05.226Z,6.77
2019-04-23T08:55:38.782Z,7.47
2019-04-23T08:58:06.234Z,7.03
2019-04-23T09:00:49.905Z,6.87
2019-04-23T09:05:50.563Z,7.17
2019-04-23T09:10:50.254Z,6.90
2019-04-23T09:13:48.265Z,7.30
2019-04-23T09:15:49.939Z,7.10
2019-04-23T09:18:23.100Z,7.23
2019-04-23T09:20:49.760Z,6.97
2019-04-23T09:23:30.873Z,7.03
2019-04-23T09:25:56.212Z,7.20
2019-04-23T09:28:36.552Z,7.90
2019-04-23T09:31:14.233Z,7.00
2019-04-23T09:41:31.184Z,7.00
2019-04-23T09:44:51.032Z,6.60
2019-04-23T09:47:08.267Z,7.10
2019-04-23T09:49:34.903Z,7.53
2019-04-23T09:52:08.024Z,6.60
2019-04-23T09:54:42.192Z,6.60
2019-04-23T09:57:03.842Z,6.73
2019-04-23T10:02:01.552Z,6.73
2019-04-23T10:04:28.131Z,6.20
2019-04-23T10:07:01.568Z,6.60
2019-04-23T10:09:18.843Z,6.43
2019-04-23T10:11:51.057Z,6.33
2019-04-23T10:14:21.079Z,6.40
2019-04-23T10:16:51.648Z,6.37
2019-04-23T10:19:22.615Z,6.63
2019-04-23T10:21:53.342Z,6.33
2019-04-23T10:24:23.505Z,6.40
2019-04-23T10:26:53.281Z,6.53
2019-04-23T10:29:27.816Z,6.80
2019-04-23T10:31:57.845Z,5.53
2019-04-23T10:34:29.244Z,6.30
2019-04-23T10:36:59.622Z,6.30
2019-04-23T10:39:35.318Z,6.47
2019-04-23T10:42:03.324Z,5.87
2019-04-23T10:44:50.108Z,6.10
2019-04-23T10:48:12.354Z,6.53
2019-04-23T10:50:46.518Z,6.73
2019-04-23T10:58:35.147Z,6.33
2019-04-23T11:00:59.918Z,6.37
2019-04-23T11:06:06.752Z,6.13
2019-04-23T11:08:33.062Z,6.20
2019-04-23T11:11:11.324Z,6.20
2019-04-23T11:13:56.558Z,6.77
2019-04-23T11:16:47.303Z,6.47
2019-04-23T11:18:53.599Z,6.43
2019-04-23T11:23:49.451Z,6.97
2019-04-23T11:26:26.418Z,6.90
2019-04-23T11:28:42.924Z,6.87
2019-04-23T11:31:30.913Z,7.07
2019-04-23T11:34:01.519Z,6.90
2019-04-23T11:36:49.875Z,7.80
2019-04-23T11:41:32.355Z,7.17
2019-04-23T11:43:55.315Z,7.90
2019-04-23T11:49:22.437Z,7.37
2019-04-23T11:51:54.730Z,7.93
2019-04-23T11:54:07.314Z,7.00
2019-04-23T11:57:14.191Z,6.90
2019-04-23T11:59:29.626Z,6.93
2019-04-23T12:04:28.440Z,7.40
2019-04-23T12:09:48.801Z,7.47
2019-04-23T12:12:17.157Z,8.13
2019-04-23T12:14:47.632Z,7.17
2019-04-23T12:17:33.173Z,7.23
2019-04-23T12:25:07.647Z,7.00
2019-04-23T12:27:31.441Z,7.27
2019-04-23T12:30:03.132Z,7.33
2019-04-23T12:35:08.353Z,7.10
2019-04-23T12:40:19.865Z,6.70
2019-04-23T12:58:12.508Z,6.43
2019-04-23T13:00:36.982Z,6.17
2019-04-23T13:03:02.904Z,6.57
2019-04-23T13:05:33.976Z,6.50
2019-04-23T13:08:15.800Z,6.30
2019-04-23T13:10:40.993Z,6.07
2019-04-23T13:13:32.402Z,6.07
2019-04-23T13:18:17.492Z,5.97
2019-04-23T13:20:41.511Z,6.13
2019-04-23T13:23:22.284Z,6.10
2019-04-23T13:26:16.054Z,6.40
2019-04-23T13:28:38.783Z,6.20
2019-04-23T13:31:12.708Z,6.67
2019-04-23T13:33:47.215Z,5.97
2019-04-23T13:48:47.211Z,5.77
2019-04-23T13:53:51.358Z,6.00
2019-04-23T13:57:13.011Z,6.30
2019-04-23T13:59:03.611Z,5.93
2019-04-23T14:01:35.891Z,5.93
2019-04-23T14:04:14.187Z,5.20
2019-04-23T14:11:51.836Z,5.83
2019-04-23T14:14:32.733Z,5.13
2019-04-23T14:16:50.949Z,6.10
2019-04-23T14:19:13.007Z,5.50
2019-04-23T14:21:51.807Z,5.40
2019-04-23T14:24:45.553Z,5.60
2019-04-23T14:26:52.536Z,5.17
2019-04-23T14:29:31.807Z,5.70
2019-04-23T14:32:07.271Z,6.27
2019-04-23T14:34:24.901Z,5.10
2019-04-23T14:42:09.892Z,4.93
2019-04-23T14:44:31.579Z,5.03
2019-04-23T14:47:18.375Z,5.20
2019-04-23T14:50:12.909Z,5.60
2019-04-23T14:52:21.672Z,4.60
2019-04-23T15:02:38.251Z,4.80
2019-04-23T15:05:11.609Z,4.77
2019-04-23T15:07:39.793Z,4.33
2019-04-23T15:10:22.004Z,4.80
2019-04-23T15:15:13.467Z,4.80
2019-04-23T15:17:40.602Z,4.87
2019-04-23T15:20:17.802Z,5.00
2019-04-23T15:23:02.734Z,5.30
2019-04-23T15:28:05.352Z,5.17
2019-04-23T15:30:17.547Z,4.93
2019-04-23T15:33:03.768Z,5.30
2019-04-23T15:40:25.154Z,5.10
2019-04-23T15:43:05.822Z,5.63
2019-04-23T15:45:29.794Z,4.97
2019-04-23T15:48:08.502Z,5.50
2019-04-23T15:53:07.788Z,5.13
2019-04-23T15:55:44.184Z,5.50
2019-04-23T15:58:14.508Z,4.97
2019-04-23T16:00:46.887Z,4.63
2019-04-23T16:02:50.789Z,5.70
2019-04-23T16:05:27.743Z,5.90
2019-04-23T16:08:18.057Z,4.63
2019-04-23T16:11:10.445Z,5.33
2019-04-23T16:13:31.244Z,5.10
2019-04-23T16:16:20.648Z,5.07
2019-04-23T16:18:41.868Z,4.87
2019-04-23T16:21:20.393Z,5.40
2019-04-23T16:24:01.103Z,5.27
2019-04-23T16:26:23.066Z,5.47
2019-04-23T16:29:07.315Z,5.73
2019-04-23T16:31:35.526Z,5.67
2019-04-23T16:34:13.598Z,5.23
2019-04-23T16:36:38.634Z,5.43
2019-04-23T16:39:12.031Z,5.57
2019-04-23T16:41:51.176Z,5.43
2019-04-23T16:46:54.134Z,5.80
2019-04-23T16:49:19.174Z,6.10
2019-04-23T16:52:03.642Z,5.67
2019-04-23T16:54:29.197Z,6.07
2019-04-23T16:59:18.426Z,5.87
2019-04-23T17:01:59.629Z,5.70
2019-04-23T17:04:24.741Z,6.10
2019-04-23T17:06:58.262Z,6.60
2019-04-23T17:09:33.642Z,6.80
2019-04-23T17:12:05.987Z,5.83
2019-04-23T17:14:27.549Z,5.27
2019-04-23T17:16:53.454Z,6.67
2019-04-23T17:22:04.557Z,6.30
2019-04-23T17:24:30.874Z,5.77
2019-04-23T17:29:41.527Z,7.83
2019-04-23T17:32:11.686Z,5.87
2019-04-23T17:35:01.597Z,7.00
2019-04-23T17:40:12.205Z,5.93
2019-04-23T17:42:50.947Z,6.43
2019-04-23T17:48:04.118Z,5.90
2019-04-23T17:50:34.051Z,6.43
2019-04-23T17:53:03.435Z,6.47
2019-04-23T17:55:57.054Z,6.53
2019-04-23T17:58:07.569Z,6.70
2019-04-23T18:00:40.559Z,6.57
2019-04-23T18:05:40.075Z,6.57
2019-04-23T18:08:15.369Z,6.53
2019-04-23T18:10:48.706Z,6.30
2019-04-23T18:13:26.216Z,6.27
2019-04-23T18:15:57.191Z,7.47
2019-04-23T18:18:33.144Z,6.20
2019-04-23T18:21:14.215Z,6.70
2019-04-23T18:23:42.352Z,6.33
2019-04-23T18:26:20.790Z,7.07
2019-04-23T18:28:58.661Z,6.93
2019-04-23T18:31:44.809Z,6.73
2019-04-23T18:36:33.633Z,7.23
2019-04-23T18:39:06.806Z,7.33
2019-04-23T18:41:43.309Z,7.07
2019-04-23T18:44:19.234Z,6.60
2019-04-23T18:46:42.101Z,6.97
2019-04-23T18:49:11.381Z,6.70
2019-04-23T18:51:58.087Z,7.57
2019-04-23T18:54:14.718Z,7.47
2019-04-23T18:57:09.961Z,7.37
2019-04-23T19:02:08.044Z,7.27
2019-04-23T19:05:03.465Z,7.27
2019-04-23T19:07:31.729Z,8.07
2019-04-23T19:12:41.416Z,7.80
2019-04-23T19:15:21.581Z,7.40
2019-04-23T19:20:26.117Z,7.80
2019-04-23T19:22:53.085Z,7.30
2019-04-23T19:25:23.007Z,7.87
2019-04-23T19:27:59.289Z,7.90
2019-04-23T19:30:41.491Z,7.47
2019-04-23T19:33:18.296Z,7.53
2019-04-23T19:35:58.960Z,7.00
2019-04-23T19:38:13.642Z,7.27
2019-04-23T19:40:51.886Z,7.33
2019-04-23T19:43:19.936Z,7.83
2019-04-23T19:45:55.715Z,7.47
2019-04-23T19:53:32.183Z,8.03
2019-04-23T19:56:03.898Z,7.80
2019-04-23T19:58:32.495Z,7.57
2019-04-23T20:01:10.257Z,7.80
2019-04-23T20:06:06.337Z,7.40
2019-04-23T20:08:48.602Z,7.67
2019-04-23T20:11:04.573Z,7.47
2019-04-23T20:13:47.265Z,7.30
2019-04-23T20:16:10.989Z,9.00
2019-04-23T20:21:04.135Z,8.10
2019-04-23T20:29:11.860Z,8.10
2019-04-23T20:34:24.132Z,7.57
2019-04-23T20:39:32.745Z,7.33
2019-04-23T20:49:42.648Z,7.97
2019-04-23T20:52:06.233Z,8.27
2019-04-23T20:57:31.628Z,8.63
2019-04-23T21:05:24.196Z,8.33
2019-04-23T21:10:27.230Z,9.53
2019-04-23T21:15:29.086Z,9.33
2019-04-23T21:23:04.670Z,10.03
2019-04-23T21:25:30.486Z,9.10
2019-04-23T21:38:55.826Z,10.20
2019-04-23T21:51:41.965Z,9.63
2019-04-23T21:54:02.085Z,10.17
2019-04-23T21:56:35.348Z,9.73
2019-04-23T22:06:41.353Z,10.17
2019-04-23T22:09:12.419Z,10.00
2019-04-23T22:16:50.333Z,10.40
2019-04-23T22:19:14.958Z,10.27
2019-04-23T22:21:47.260Z,10.73
2019-04-23T22:26:45.419Z,10.53
2019-04-23T22:34:34.098Z,10.80
2019-04-23T22:37:07.584Z,11.03
2019-04-23T22:39:21.942Z,11.27
2019-04-23T22:44:48.607Z,11.20
2019-04-23T22:47:04.310Z,11.43
2019-04-23T22:49:41.695Z,11.73
2019-04-23T22:52:09.442Z,11.20
2019-04-23T22:54:41.935Z,11.33
2019-04-23T22:57:04.747Z,11.13
2019-04-23T23:02:29.843Z,12.37
2019-04-23T23:05:10.044Z,11.47
2019-04-23T23:07:28.875Z,10.60
2019-04-23T23:10:12.543Z,11.17
2019-04-23T23:12:43.722Z,12.20
2019-04-23T23:17:48.383Z,11.97
2019-04-23T23:20:20.910Z,12.70
2019-04-23T23:22:46.074Z,12.43
2019-04-23T23:25:11.428Z,11.53
2019-04-23T23:27:39.701Z,12.43
2019-04-23T23:30:13.670Z,12.30
2019-04-23T23:32:51.771Z,12.30
2019-04-23T23:37:41.838Z,12.17
2019-04-23T23:40:21.925Z,12.80
2019-04-23T23:42:56.229Z,12.93
2019-04-23T23:48:18.620Z,13.87
2019-04-23T23:51:07.937Z,12.67
2019-04-23T23:53:29.869Z,12.47
2019-04-23T23:56:05.437Z,13.27
2019-04-23T23:58:40.742Z,12.07
